Time;durP1;ratioP1;P1;durP2;ratioP2;P2;SDS_P1;SDS_P2;PMS_P1;PMS_P2;Temp;Humidity;BMP_temperature;BMP_pressure;BME280_temperature;BME280_humidity;BME280_pressure;Samples;Min_cycle;Max_cycle;Signal;HPM_P1;HPM_P2
2022/08/08 00:00:15;;;;;;;0.57;0.57;;;;;;;27.65;45.87;95129.50;5052622;28;20212;-65
2022/08/08 00:03:17;;;;;;;1.73;1.50;;;;;;;27.79;45.44;95124.38;5041526;28;20204;-69
2022/08/08 00:06:08;;;;;;;1.17;1.07;;;;;;;27.88;45.32;95127.63;5052071;28;20278;-70
2022/08/08 00:08:45;;;;;;;0.93;0.93;;;;;;;27.97;45.03;95128.19;5052178;28;20224;-67
2022/08/08 00:11:18;;;;;;;1.00;1.00;;;;;;;28.12;45.02;95126.50;5039246;28;20197;-62
2022/08/08 00:13:56;;;;;;;0.60;0.60;;;;;;;28.24;44.59;95134.38;5052147;28;20204;-67
2022/08/08 00:16:53;;;;;;;1.03;1.03;;;;;;;28.26;44.55;95132.09;5042296;28;20292;-65
2022/08/08 00:19:23;;;;;;;1.30;0.97;;;;;;;28.04;45.06;95139.06;5036141;28;20291;-65
2022/08/08 00:22:04;;;;;;;0.63;0.63;;;;;;;27.92;45.30;95140.00;5051639;28;20205;-69
2022/08/08 00:24:41;;;;;;;1.87;1.77;;;;;;;28.02;45.24;95125.19;5051546;28;20209;-68
2022/08/08 00:27:12;;;;;;;1.00;1.00;;;;;;;28.15;44.46;95126.56;5063804;28;20195;-65
2022/08/08 00:29:50;;;;;;;0.73;0.73;;;;;;;28.08;44.83;95137.22;5056137;28;20690;-66
2022/08/08 00:32:36;;;;;;;2.13;0.90;;;;;;;28.12;44.71;95138.03;5045864;28;20665;-63
2022/08/08 00:35:25;;;;;;;1.23;1.20;;;;;;;28.06;45.05;95144.88;5043150;28;20249;-69
2022/08/08 00:38:07;;;;;;;1.20;1.10;;;;;;;27.60;45.73;95135.19;5060226;28;20196;-69
2022/08/08 00:41:31;;;;;;;1.37;1.30;;;;;;;27.52;45.88;95141.56;5050716;28;20231;-65
2022/08/08 00:44:30;;;;;;;1.03;1.03;;;;;;;27.17;46.91;95143.53;5051228;28;20291;-67
2022/08/08 00:46:56;;;;;;;1.23;1.13;;;;;;;27.28;46.29;95141.84;5050476;28;20728;-67
2022/08/08 00:50:13;;;;;;;1.17;1.07;;;;;;;27.44;46.17;95134.50;5046680;28;20237;-67
2022/08/08 00:52:46;;;;;;;0.93;0.90;;;;;;;27.46;46.20;95137.59;5016699;28;20197;-65
2022/08/08 00:55:29;;;;;;;1.87;1.60;;;;;;;27.72;45.69;95133.09;5019126;28;20217;-64
2022/08/08 00:58:21;;;;;;;1.50;1.40;;;;;;;27.38;46.16;95146.66;5043041;28;20629;-62
2022/08/08 01:01:02;;;;;;;0.70;0.70;;;;;;;27.12;46.57;95149.19;5056936;28;20600;-67
2022/08/08 01:04:09;;;;;;;0.50;0.50;;;;;;;27.28;46.46;95147.22;5076335;28;20282;-65
2022/08/08 01:07:09;;;;;;;1.13;1.10;;;;;;;27.33;46.05;95150.44;5037239;28;20215;-66
2022/08/08 01:10:15;;;;;;;1.57;1.10;;;;;;;27.25;46.79;95156.00;5058467;28;20224;-63
2022/08/08 01:13:00;;;;;;;6.50;1.00;;;;;;;27.30;45.96;95144.97;5046043;28;20200;-68
2022/08/08 01:15:37;;;;;;;0.57;0.57;;;;;;;27.26;46.46;95162.94;5056701;28;20244;-68
2022/08/08 01:18:35;;;;;;;1.07;0.90;;;;;;;27.06;47.14;95161.38;5038124;28;20208;-63
2022/08/08 01:21:44;;;;;;;1.13;1.07;;;;;;;27.00;46.82;95156.28;5056603;28;20658;-65
2022/08/08 01:24:52;;;;;;;1.43;1.33;;;;;;;26.96;46.94;95168.09;5050160;28;20200;-64
2022/08/08 01:27:41;;;;;;;0.73;0.73;;;;;;;26.84;46.88;95160.91;5049299;28;20596;-66
2022/08/08 01:31:10;;;;;;;0.73;0.73;;;;;;;26.87;46.83;95170.97;5039534;28;20656;-66
2022/08/08 01:34:29;;;;;;;1.10;1.10;;;;;;;26.87;46.80;95175.56;5038431;28;20193;-66
2022/08/08 01:37:22;;;;;;;0.90;0.90;;;;;;;26.66;47.04;95165.09;5039081;28;20475;-64
2022/08/08 01:40:47;;;;;;;1.43;1.33;;;;;;;26.72;46.71;95158.34;5060764;28;20198;-65
2022/08/08 01:43:48;;;;;;;0.77;0.73;;;;;;;26.76;46.03;95161.91;5038036;28;20199;-67
2022/08/08 01:46:41;;;;;;;0.60;0.60;;;;;;;26.39;46.38;95165.22;5037426;28;20224;-66
2022/08/08 01:49:43;;;;;;;1.87;1.77;;;;;;;26.36;47.38;95171.28;5037236;28;20249;-68
2022/08/08 01:52:41;;;;;;;1.13;1.13;;;;;;;26.71;46.16;95164.88;5045135;28;20694;-68
2022/08/08 01:55:35;;;;;;;0.83;0.83;;;;;;;26.81;45.92;95161.63;5084861;28;20200;-66
2022/08/08 01:58:40;;;;;;;1.90;0.80;;;;;;;26.26;46.62;95156.47;5042630;28;20208;-71
2022/08/08 02:01:51;;;;;;;0.90;0.90;;;;;;;26.47;46.29;95165.06;5048691;28;20200;-69
2022/08/08 02:04:57;;;;;;;0.90;0.90;;;;;;;26.28;46.67;95167.66;5033606;28;20264;-68
2022/08/08 02:07:55;;;;;;;1.07;1.07;;;;;;;26.34;46.85;95168.97;5061534;28;20629;-67
2022/08/08 02:10:59;;;;;;;0.50;0.50;;;;;;;26.51;46.32;95167.81;5054588;28;20200;-68
2022/08/08 02:13:34;;;;;;;1.00;1.00;;;;;;;26.36;46.88;95172.09;5037660;28;20196;-68
2022/08/08 02:17:16;;;;;;;0.50;0.50;;;;;;;26.50;46.44;95172.41;5038132;28;20235;-69
2022/08/08 02:20:07;;;;;;;1.50;1.40;;;;;;;26.62;45.78;95169.59;5016006;28;20208;-64
2022/08/08 02:23:06;;;;;;;1.23;0.80;;;;;;;26.36;46.86;95173.97;5063357;28;20192;-66
2022/08/08 02:26:00;;;;;;;1.17;1.07;;;;;;;26.13;47.10;95168.44;5044799;28;20262;-72
2022/08/08 02:28:31;;;;;;;0.93;0.93;;;;;;;26.31;46.54;95171.56;5048419;28;20252;-69
2022/08/08 02:31:41;;;;;;;0.70;0.70;;;;;;;25.94;47.77;95171.00;5047393;28;20681;-68
2022/08/08 02:34:59;;;;;;;0.80;0.80;;;;;;;26.33;46.79;95167.38;5064539;28;20279;-66
2022/08/08 02:37:56;;;;;;;0.67;0.67;;;;;;;26.25;47.30;95170.25;5022215;28;20251;-64
2022/08/08 02:40:58;;;;;;;1.50;1.40;;;;;;;26.17;47.30;95174.66;5038787;28;20331;-66
2022/08/08 02:43:43;;;;;;;1.13;1.13;;;;;;;26.10;47.34;95179.88;5047766;28;20196;-65
2022/08/08 02:46:37;;;;;;;0.83;0.83;;;;;;;25.91;47.41;95182.44;5061667;28;20244;-69
2022/08/08 02:49:49;;;;;;;1.37;1.23;;;;;;;26.04;47.41;95186.63;5058636;28;20207;-68
2022/08/08 02:52:29;;;;;;;1.47;0.60;;;;;;;25.83;48.03;95186.06;4998742;28;20348;-66
2022/08/08 02:55:45;;;;;;;0.73;0.73;;;;;;;26.21;47.59;95175.53;5045628;28;20200;-67
2022/08/08 02:59:01;;;;;;;1.53;0.97;;;;;;;26.12;46.98;95177.63;5081651;28;20291;-62
2022/08/08 03:02:12;;;;;;;0.70;0.70;;;;;;;26.23;46.58;95189.41;5048144;28;20204;-68
2022/08/08 03:04:56;;;;;;;0.77;0.77;;;;;;;26.21;46.71;95191.66;5048192;28;20660;-68
2022/08/08 03:07:52;;;;;;;1.23;1.13;;;;;;;25.95;47.29;95194.03;5063891;28;20199;-67
2022/08/08 03:10:44;;;;;;;2.23;1.80;;;;;;;26.04;46.87;95186.63;5047670;28;20236;-65
2022/08/08 03:13:43;;;;;;;1.07;0.90;;;;;;;26.20;47.38;95189.31;5081103;28;20686;-67
2022/08/08 03:16:41;;;;;;;0.67;0.67;;;;;;;26.20;47.75;95183.94;5036464;28;20276;-66
2022/08/08 03:19:38;;;;;;;1.13;1.13;;;;;;;26.21;47.15;95193.56;5050701;28;20730;-68
2022/08/08 03:22:17;;;;;;;0.60;0.60;;;;;;;26.10;47.20;95196.00;5052983;28;20286;-69
2022/08/08 03:25:06;;;;;;;2.00;1.33;;;;;;;26.21;47.44;95202.41;5049980;28;20589;-66
2022/08/08 03:27:53;;;;;;;0.87;0.87;;;;;;;26.16;47.17;95200.00;5045487;28;20694;-64
2022/08/08 03:30:26;;;;;;;1.80;1.00;;;;;;;26.16;46.97;95202.66;5068019;28;20305;-68
2022/08/08 03:36:01;;;;;;;1.13;0.70;;;;;;;26.03;47.56;95206.53;5046520;28;20255;-67
2022/08/08 03:38:29;;;;;;;4.67;1.53;;;;;;;26.06;47.21;95211.22;5048186;28;20957;-71
2022/08/08 03:41:17;;;;;;;0.77;0.73;;;;;;;25.91;47.67;95209.28;5065229;28;20205;-72
2022/08/08 03:44:05;;;;;;;0.67;0.67;;;;;;;25.94;47.39;95206.69;5055098;28;20738;-69
2022/08/08 03:46:48;;;;;;;1.77;1.37;;;;;;;25.95;47.53;95207.47;5065651;28;21020;-73
2022/08/08 03:49:25;;;;;;;1.90;1.10;;;;;;;26.04;47.28;95218.84;5047474;28;20243;-71
2022/08/08 03:52:13;;;;;;;1.80;1.70;;;;;;;25.97;47.39;95218.63;5053450;28;20197;-66
2022/08/08 03:54:43;;;;;;;1.90;1.67;;;;;;;25.93;47.57;95212.38;5047641;28;20220;-67
2022/08/08 03:57:31;;;;;;;1.30;0.93;;;;;;;25.89;48.01;95222.28;5067696;28;20193;-63
2022/08/08 04:00:22;;;;;;;2.30;1.50;;;;;;;25.88;48.01;95212.66;5047238;28;20255;-68
2022/08/08 04:03:02;;;;;;;0.80;0.80;;;;;;;25.69;48.31;95218.66;5044557;28;20209;-64
2022/08/08 04:05:34;;;;;;;0.83;0.83;;;;;;;25.85;48.11;95221.41;5079003;28;20216;-65
2022/08/08 04:08:16;;;;;;;1.20;1.10;;;;;;;25.83;48.25;95229.00;5047327;28;20193;-70
2022/08/08 04:11:08;;;;;;;0.80;0.73;;;;;;;25.73;48.63;95219.53;5083088;28;20581;-66
2022/08/08 04:13:44;;;;;;;0.40;0.40;;;;;;;25.83;48.34;95212.91;5038004;28;20201;-63
2022/08/08 04:16:33;;;;;;;1.83;1.53;;;;;;;26.10;47.86;95222.84;5041077;28;20307;-66
2022/08/08 04:19:08;;;;;;;1.60;1.30;;;;;;;25.93;48.27;95233.88;5051772;28;20192;-64
2022/08/08 04:21:55;;;;;;;0.97;0.97;;;;;;;25.67;48.63;95231.66;5060230;28;20262;-69
2022/08/08 04:24:26;;;;;;;1.20;1.13;;;;;;;25.58;48.54;95232.94;5049437;28;20660;-68
2022/08/08 04:27:00;;;;;;;1.70;1.60;;;;;;;24.94;50.23;95241.75;5051725;28;20223;-68
2022/08/08 04:29:29;;;;;;;1.57;1.47;;;;;;;25.35;49.63;95239.91;5040069;28;20229;-65
2022/08/08 04:32:06;;;;;;;1.47;1.17;;;;;;;25.73;48.78;95232.22;5047399;28;20637;-66
2022/08/08 04:34:34;;;;;;;0.63;0.63;;;;;;;25.08;49.98;95241.41;5049886;28;20291;-64
2022/08/08 04:37:24;;;;;;;0.67;0.67;;;;;;;25.32;49.70;95245.94;5049457;28;20216;-61
2022/08/08 04:39:59;;;;;;;1.10;1.10;;;;;;;24.53;51.98;95252.72;5061385;28;20286;-69
2022/08/08 04:42:38;;;;;;;0.67;0.67;;;;;;;25.25;50.20;95245.75;5044500;28;20205;-70
2022/08/08 04:45:26;;;;;;;3.30;2.50;;;;;;;25.41;49.67;95244.72;5077384;28;20260;-65
2022/08/08 04:47:58;;;;;;;8.37;7.50;;;;;;;25.52;49.17;95250.38;5047153;28;20652;-72
2022/08/08 04:50:30;;;;;;;4.93;3.70;;;;;;;25.99;48.19;95248.63;5045503;28;20311;-69
2022/08/08 04:53:07;;;;;;;4.13;2.93;;;;;;;26.20;48.09;95245.75;5050123;28;20204;-70
2022/08/08 04:55:54;;;;;;;1.47;1.37;;;;;;;26.25;48.18;95240.91;5056634;28;20192;-68
2022/08/08 04:58:26;;;;;;;0.50;0.50;;;;;;;26.20;48.37;95251.91;5056611;28;20690;-66
2022/08/08 05:00:53;;;;;;;1.33;1.23;;;;;;;26.15;48.65;95262.13;5029964;28;20205;-65
2022/08/08 05:03:21;;;;;;;4.53;2.83;;;;;;;25.83;49.64;95245.13;5061595;28;20290;-64
2022/08/08 05:06:08;;;;;;;3.30;3.10;;;;;;;25.80;49.57;95256.56;5036348;28;20184;-67
2022/08/08 05:08:45;;;;;;;4.30;3.93;;;;;;;25.55;50.18;95261.22;5081720;28;20216;-66
2022/08/08 05:11:21;;;;;;;3.60;1.87;;;;;;;26.22;48.57;95251.56;5082127;28;20192;-65
2022/08/08 05:13:58;;;;;;;0.80;0.80;;;;;;;26.47;47.93;95252.94;5082708;28;20262;-62
2022/08/08 05:16:31;;;;;;;1.87;1.63;;;;;;;26.38;47.40;95247.75;5083170;28;20204;-65
2022/08/08 05:19:21;;;;;;;1.07;1.00;;;;;;;26.66;46.84;95255.72;5046244;28;20201;-68
2022/08/08 05:22:09;;;;;;;1.10;1.07;;;;;;;26.52;47.69;95256.16;5059080;28;20200;-67
2022/08/08 05:24:40;;;;;;;0.50;0.50;;;;;;;26.64;46.95;95261.44;5037007;28;20678;-67
2022/08/08 05:27:15;;;;;;;0.57;0.57;;;;;;;26.26;48.62;95268.56;5046545;28;20201;-65
2022/08/08 05:29:43;;;;;;;1.97;1.60;;;;;;;26.53;47.31;95257.69;5050539;28;20768;-64
2022/08/08 05:32:16;;;;;;;1.10;1.10;;;;;;;26.58;46.77;95252.09;5049100;28;20679;-68
2022/08/08 05:34:49;;;;;;;2.10;1.70;;;;;;;26.74;46.78;95263.63;5045537;28;20192;-69
2022/08/08 05:37:26;;;;;;;1.17;1.07;;;;;;;27.96;44.73;95258.59;5049621;28;20200;-69
2022/08/08 05:40:15;;;;;;;0.80;0.80;;;;;;;27.74;45.12;95257.38;5044496;28;20188;-70
2022/08/08 05:42:46;;;;;;;0.80;0.80;;;;;;;28.01;44.65;95255.63;5045805;28;20742;-68
2022/08/08 05:45:15;;;;;;;1.03;1.00;;;;;;;27.68;45.39;95263.44;5044621;28;20681;-67
2022/08/08 05:47:59;;;;;;;1.30;1.20;;;;;;;27.56;45.77;95267.03;5050769;28;20629;-70
2022/08/08 05:50:35;;;;;;;0.73;0.73;;;;;;;27.75;45.37;95268.94;5066189;28;20324;-71
2022/08/08 05:53:06;;;;;;;0.80;0.80;;;;;;;27.86;45.13;95264.56;5054756;28;20208;-66
2022/08/08 05:55:59;;;;;;;0.40;0.40;;;;;;;28.26;44.27;95267.66;5035299;28;20196;-66
2022/08/08 05:58:45;;;;;;;1.23;1.20;;;;;;;27.95;44.11;95262.44;5030367;28;20201;-72
2022/08/08 06:01:36;;;;;;;1.23;1.13;;;;;;;27.93;44.65;95264.72;5037828;28;20623;-65
2022/08/08 06:04:27;;;;;;;1.10;0.97;;;;;;;27.24;47.23;95265.56;5035657;28;20234;-69
2022/08/08 06:06:59;;;;;;;0.70;0.70;;;;;;;27.06;47.51;95272.44;5035498;28;20202;-66
2022/08/08 06:09:36;;;;;;;1.83;1.73;;;;;;;26.91;47.59;95271.34;5048600;28;20245;-69
2022/08/08 06:12:23;;;;;;;3.60;2.30;;;;;;;27.88;45.30;95273.06;5043956;28;20204;-68
2022/08/08 06:15:04;;;;;;;1.23;1.20;;;;;;;27.08;48.34;95270.16;5040084;28;20204;-69
2022/08/08 06:17:39;;;;;;;0.90;0.90;;;;;;;27.14;47.97;95270.69;5065575;28;20198;-68
2022/08/08 06:20:26;;;;;;;1.43;1.33;;;;;;;26.84;48.63;95279.22;5049826;28;20223;-67
2022/08/08 06:22:54;;;;;;;1.63;1.53;;;;;;;27.01;48.50;95276.19;5043210;28;20199;-68
2022/08/08 06:25:30;;;;;;;5.30;1.90;;;;;;;27.40;47.63;95274.38;5053854;28;20201;-70
2022/08/08 06:28:25;;;;;;;2.40;1.50;;;;;;;27.65;46.33;95277.56;5028588;28;20197;-65
2022/08/08 06:31:05;;;;;;;1.17;0.83;;;;;;;27.77;45.67;95277.47;5043408;28;20584;-67
2022/08/08 06:34:13;;;;;;;2.00;1.70;;;;;;;28.26;45.05;95273.03;5048432;28;20211;-71
2022/08/08 06:36:59;;;;;;;0.80;0.80;;;;;;;28.53;44.72;95277.38;5060125;28;20204;-70
2022/08/08 06:39:53;;;;;;;4.03;0.93;;;;;;;28.29;44.04;95277.69;5046335;28;20193;-71
2022/08/08 06:42:28;;;;;;;2.77;1.37;;;;;;;28.11;45.20;95283.91;5056748;28;20212;-67
2022/08/08 06:45:01;;;;;;;0.53;0.53;;;;;;;28.68;44.40;95284.59;5034492;28;20731;-65
2022/08/08 06:47:34;;;;;;;0.70;0.70;;;;;;;28.76;44.58;95278.16;5081146;28;20231;-69
2022/08/08 06:50:21;;;;;;;1.20;1.10;;;;;;;28.31;46.05;95269.25;5035216;28;20679;-67
2022/08/08 06:53:07;;;;;;;0.67;0.67;;;;;;;28.25;44.58;95266.06;5047878;28;20193;-68
2022/08/08 06:55:42;;;;;;;0.70;0.70;;;;;;;28.67;43.36;95283.00;5053062;28;20529;-66
2022/08/08 06:58:13;;;;;;;1.13;1.13;;;;;;;28.38;45.44;95272.84;5056385;28;20215;-71
2022/08/08 07:00:47;;;;;;;0.73;0.60;;;;;;;28.52;44.45;95285.81;5062125;28;20197;-69
2022/08/08 07:03:46;;;;;;;2.00;1.43;;;;;;;29.10;42.01;95289.84;5063123;28;20207;-71
2022/08/08 07:06:41;;;;;;;4.10;1.63;;;;;;;28.79;42.21;95284.75;5033956;28;20656;-71
2022/08/08 07:09:17;;;;;;;0.67;0.67;;;;;;;29.41;42.50;95284.16;5062775;28;21012;-68
2022/08/08 07:11:50;;;;;;;1.70;1.17;;;;;;;29.46;40.91;95288.47;5057165;28;20205;-70
2022/08/08 07:14:36;;;;;;;0.60;0.60;;;;;;;29.68;41.29;95288.38;5054168;28;20244;-66
2022/08/08 07:17:07;;;;;;;4.83;1.30;;;;;;;29.64;40.88;95278.66;5045890;28;20621;-71
2022/08/08 07:19:47;;;;;;;2.80;1.37;;;;;;;29.40;39.18;95276.41;5072270;28;20224;-70
2022/08/08 07:22:23;;;;;;;1.47;1.27;;;;;;;29.34;39.07;95272.50;5051824;28;20188;-69
2022/08/08 07:24:57;;;;;;;4.17;0.73;;;;;;;29.29;38.99;95280.91;5052126;28;20258;-69
2022/08/08 07:27:27;;;;;;;1.33;1.23;;;;;;;29.32;38.92;95280.19;5093898;28;20199;-70
2022/08/08 07:30:15;;;;;;;0.50;0.50;;;;;;;29.80;38.16;95281.97;5048489;28;20209;-67
2022/08/08 07:32:55;;;;;;;0.87;0.87;;;;;;;29.64;38.12;95271.34;5064635;28;20196;-65
2022/08/08 07:35:27;;;;;;;1.00;0.93;;;;;;;30.29;36.68;95279.84;5068708;28;20268;-67
2022/08/08 07:37:56;;;;;;;5.33;1.60;;;;;;;29.94;35.89;95282.16;5059519;28;20192;-65
2022/08/08 07:40:50;;;;;;;1.53;0.67;;;;;;;30.38;36.90;95282.28;5097679;28;20199;-69
2022/08/08 07:43:22;;;;;;;1.47;1.37;;;;;;;30.37;36.29;95278.00;5057136;28;20196;-68
2022/08/08 07:46:05;;;;;;;0.77;0.77;;;;;;;30.27;35.46;95260.53;5057344;28;20228;-66
2022/08/08 07:48:56;;;;;;;0.40;0.40;;;;;;;30.42;34.89;95264.91;5057223;28;20200;-69
2022/08/08 07:51:25;;;;;;;0.73;0.73;;;;;;;30.58;35.22;95270.84;5051086;28;20318;-69
2022/08/08 07:54:41;;;;;;;0.60;0.60;;;;;;;30.77;34.98;95267.94;5050927;28;20200;-70
2022/08/08 07:57:34;;;;;;;0.60;0.60;;;;;;;30.69;34.70;95260.91;5065187;28;20205;-71
2022/08/08 08:00:14;;;;;;;0.40;0.40;;;;;;;31.21;34.75;95267.13;5064094;28;20618;-67
2022/08/08 08:03:17;;;;;;;0.83;0.60;;;;;;;30.81;34.11;95266.06;5040748;28;20541;-68
2022/08/08 08:05:57;;;;;;;0.27;0.27;;;;;;;30.74;33.60;95263.28;5030805;28;20648;-69
2022/08/08 08:08:40;;;;;;;0.57;0.57;;;;;;;30.47;34.63;95264.59;5043773;28;20230;-67
2022/08/08 08:11:22;;;;;;;6.80;0.70;;;;;;;31.39;32.95;95251.78;5051754;28;20692;-67
2022/08/08 08:14:05;;;;;;;0.60;0.60;;;;;;;31.18;35.99;95255.13;5091914;28;20196;-66
2022/08/08 08:16:46;;;;;;;0.50;0.50;;;;;;;31.82;33.65;95253.53;5050765;28;20274;-67
2022/08/08 08:19:18;;;;;;;0.70;0.70;;;;;;;31.91;31.97;95254.00;5064455;28;20652;-68
2022/08/08 08:21:48;;;;;;;0.80;0.57;;;;;;;31.38;33.46;95252.94;5050797;28;20239;-65
2022/08/08 08:24:35;;;;;;;0.90;0.90;;;;;;;31.88;32.32;95254.69;5046956;28;20205;-69
2022/08/08 08:27:04;;;;;;;0.80;0.80;;;;;;;31.77;31.93;95243.03;5041866;28;20362;-65
2022/08/08 08:29:39;;;;;;;0.53;0.53;;;;;;;31.73;31.76;95242.28;5070027;28;20218;-66
2022/08/08 08:32:09;;;;;;;0.63;0.57;;;;;;;32.10;31.78;95250.16;5059309;28;20207;-70
2022/08/08 08:34:38;;;;;;;0.70;0.70;;;;;;;32.08;31.94;95242.41;5063610;28;20287;-70
2022/08/08 08:37:10;;;;;;;0.60;0.60;;;;;;;32.39;31.78;95236.25;5039891;28;20217;-68
2022/08/08 08:39:42;;;;;;;1.07;1.07;;;;;;;32.39;31.81;95236.25;5047551;28;20738;-70
2022/08/08 08:42:30;;;;;;;0.50;0.50;;;;;;;32.42;30.32;95243.69;5057944;28;20288;-67
2022/08/08 08:45:06;;;;;;;0.40;0.40;;;;;;;32.07;30.63;95240.84;5083264;28;20730;-66
2022/08/08 08:47:52;;;;;;;0.80;0.80;;;;;;;32.50;32.22;95242.50;5050469;28;20203;-68
2022/08/08 08:50:24;;;;;;;0.47;0.47;;;;;;;32.34;30.88;95223.09;5047141;28;20217;-66
2022/08/08 08:53:06;;;;;;;0.53;0.53;;;;;;;33.09;31.18;95232.03;5068715;28;20227;-63
2022/08/08 08:55:58;;;;;;;0.40;0.40;;;;;;;33.42;29.34;95231.56;5052197;28;20630;-68
2022/08/08 08:58:41;;;;;;;0.33;0.33;;;;;;;33.30;29.59;95221.13;5046850;28;20231;-69
2022/08/08 09:01:19;;;;;;;2.97;1.07;;;;;;;32.71;29.13;95222.75;5058521;28;20191;-71
2022/08/08 09:03:49;;;;;;;0.60;0.60;;;;;;;32.73;28.83;95217.72;5068083;28;20314;-68
2022/08/08 09:06:27;;;;;;;0.43;0.37;;;;;;;32.73;29.03;95212.28;5050352;28;20207;-70
2022/08/08 09:09:15;;;;;;;0.60;0.60;;;;;;;32.86;28.77;95226.22;5035845;28;20197;-68
2022/08/08 09:12:11;;;;;;;0.40;0.40;;;;;;;32.89;28.75;95214.56;5049519;28;20670;-68
2022/08/08 09:14:43;;;;;;;0.60;0.60;;;;;;;32.88;28.78;95221.19;5083139;28;20204;-65
2022/08/08 09:17:15;;;;;;;0.43;0.43;;;;;;;32.70;29.02;95208.41;5049515;28;20208;-66
2022/08/08 09:19:54;;;;;;;1.23;1.03;;;;;;;32.93;27.35;95199.06;5049555;28;20211;-66
2022/08/08 09:22:42;;;;;;;1.20;0.73;;;;;;;32.89;28.00;95195.56;5049273;28;20658;-63
2022/08/08 09:25:11;;;;;;;0.40;0.40;;;;;;;32.72;27.91;95199.84;5044920;28;20318;-67
2022/08/08 09:27:43;;;;;;;0.20;0.20;;;;;;;32.56;26.72;95202.97;5051794;28;20196;-70
2022/08/08 09:30:30;;;;;;;0.30;0.30;;;;;;;32.93;28.04;95205.28;5058224;28;20219;-68
2022/08/08 09:32:59;;;;;;;0.67;0.67;;;;;;;33.24;26.88;95187.38;5048916;28;20207;-69
2022/08/08 09:35:47;;;;;;;0.50;0.50;;;;;;;33.91;26.81;95192.56;5061808;28;20728;-67
2022/08/08 09:38:36;;;;;;;0.63;0.63;;;;;;;34.07;26.80;95193.66;5043155;28;20205;-65
2022/08/08 09:41:42;;;;;;;1.63;0.93;;;;;;;33.83;28.37;95191.06;5079302;28;20551;-67
2022/08/08 09:44:50;;;;;;;0.77;0.73;;;;;;;33.86;27.06;95187.53;5049850;28;20243;-65
2022/08/08 09:47:22;;;;;;;0.80;0.80;;;;;;;33.65;28.20;95186.47;5050656;28;20196;-66
2022/08/08 09:49:56;;;;;;;0.57;0.57;;;;;;;33.70;27.08;95182.59;5050231;28;20204;-67
2022/08/08 09:52:33;;;;;;;0.40;0.40;;;;;;;33.26;28.79;95174.19;5050316;28;20250;-66
2022/08/08 09:55:21;;;;;;;1.47;1.07;;;;;;;33.53;27.77;95173.34;5050970;28;20200;-68
2022/08/08 09:58:17;;;;;;;0.40;0.40;;;;;;;33.44;27.93;95180.34;5058959;28;20234;-63
2022/08/08 10:00:58;;;;;;;0.57;0.57;;;;;;;33.04;29.53;95175.41;5049797;28;20192;-68
2022/08/08 10:03:27;;;;;;;0.30;0.30;;;;;;;33.37;27.78;95164.06;5037479;28;20207;-71
2022/08/08 10:05:57;;;;;;;0.40;0.40;;;;;;;33.95;27.24;95155.25;5044256;28;20217;-66
2022/08/08 10:08:25;;;;;;;0.83;0.77;;;;;;;34.15;27.07;95159.03;5041991;28;20204;-67
2022/08/08 10:11:00;;;;;;;0.30;0.30;;;;;;;34.05;25.82;95128.00;5035665;28;20688;-63
2022/08/08 10:13:38;;;;;;;1.07;0.70;;;;;;;34.67;26.20;95139.56;5062310;28;20196;-66
2022/08/08 10:16:08;;;;;;;0.43;0.43;;;;;;;34.87;25.75;95139.78;5036419;28;20199;-64
2022/08/08 10:18:35;;;;;;;0.53;0.53;;;;;;;34.35;24.97;95133.63;5050307;28;20578;-64
2022/08/08 10:21:11;;;;;;;0.30;0.30;;;;;;;34.12;24.59;95133.44;5050066;28;20188;-64
2022/08/08 10:23:52;;;;;;;0.40;0.40;;;;;;;34.21;24.23;95125.59;5062990;28;20238;-67
2022/08/08 10:26:40;;;;;;;0.30;0.30;;;;;;;33.87;25.41;95132.00;5043920;28;20205;-65
2022/08/08 10:29:38;;;;;;;0.80;0.80;;;;;;;33.51;25.81;95136.84;5048671;28;20653;-66
2022/08/08 10:32:42;;;;;;;0.60;0.60;;;;;;;33.44;26.27;95139.59;5056310;28;20690;-67
2022/08/08 10:35:22;;;;;;;0.20;0.20;;;;;;;33.77;25.64;95130.91;5038284;28;20203;-65
2022/08/08 10:38:13;;;;;;;0.40;0.40;;;;;;;33.68;25.40;95133.28;5049307;28;20714;-66
2022/08/08 10:40:44;;;;;;;0.40;0.40;;;;;;;33.72;24.74;95126.66;5049802;28;20252;-68
2022/08/08 10:43:11;;;;;;;1.93;1.83;;;;;;;34.71;25.54;95115.81;5049998;28;20258;-67
2022/08/08 10:45:44;;;;;;;0.57;0.40;;;;;;;34.83;24.65;95120.00;5059846;28;20793;-64
2022/08/08 10:48:32;;;;;;;0.40;0.40;;;;;;;34.64;24.78;95110.44;5049616;28;22146;-65
2022/08/08 10:51:24;;;;;;;0.57;0.57;;;;;;;34.41;24.73;95115.69;5049335;28;20278;-63
2022/08/08 10:53:54;;;;;;;0.43;0.40;;;;;;;34.43;23.96;95115.28;5049467;28;20576;-63
2022/08/08 10:56:25;;;;;;;0.37;0.37;;;;;;;34.31;24.59;95115.75;5051404;28;20210;-65
2022/08/08 10:58:59;;;;;;;3.83;0.60;;;;;;;33.96;25.32;95113.34;5051322;28;20252;-66
2022/08/08 11:01:30;;;;;;;0.37;0.37;;;;;;;34.33;24.50;95110.69;5060074;28;20206;-68
2022/08/08 11:04:00;;;;;;;0.47;0.47;;;;;;;34.52;23.95;95107.47;5052103;28;20319;-65
2022/08/08 11:06:32;;;;;;;0.30;0.30;;;;;;;34.59;24.05;95105.44;5049453;28;20310;-67
2022/08/08 11:09:03;;;;;;;0.20;0.20;;;;;;;34.10;23.67;95105.84;5049211;28;20235;-64
2022/08/08 11:11:46;;;;;;;0.73;0.73;;;;;;;34.01;24.00;95105.53;5061016;28;20215;-65
2022/08/08 11:14:32;;;;;;;0.40;0.40;;;;;;;34.32;24.75;95109.94;5042002;28;20683;-64
2022/08/08 11:17:02;;;;;;;0.33;0.33;;;;;;;34.84;23.85;95101.69;5058034;28;20205;-66
2022/08/08 11:19:33;;;;;;;1.30;0.63;;;;;;;34.94;23.50;95092.66;5050442;28;20192;-65
2022/08/08 11:22:02;;;;;;;0.63;0.63;;;;;;;35.18;23.69;95088.88;5049508;28;20287;-65
2022/08/08 11:24:33;;;;;;;0.60;0.60;;;;;;;34.64;24.74;95101.50;5049188;28;20200;-65
2022/08/08 11:27:03;;;;;;;0.87;0.47;;;;;;;34.00;23.63;95093.09;5050270;28;20204;-67
2022/08/08 11:29:47;;;;;;;0.43;0.43;;;;;;;34.73;24.13;95091.69;5050719;28;20204;-64
2022/08/08 11:32:40;;;;;;;1.20;1.10;;;;;;;34.77;24.58;95088.16;5049391;28;20274;-67
2022/08/08 11:35:12;;;;;;;0.30;0.30;;;;;;;34.80;24.03;95084.63;5048793;28;20781;-67
2022/08/08 11:38:00;;;;;;;1.40;1.23;;;;;;;35.12;23.10;95074.94;5045623;28;20197;-67
2022/08/08 11:40:48;;;;;;;0.70;0.70;;;;;;;35.09;22.88;95080.44;5053465;28;20195;-63
2022/08/08 11:43:20;;;;;;;0.73;0.73;;;;;;;35.03;23.90;95084.78;5054887;28;20228;-64
2022/08/08 11:45:51;;;;;;;1.73;1.63;;;;;;;35.52;24.14;95082.25;5068686;28;20231;-64
2022/08/08 11:48:39;;;;;;;1.80;1.70;;;;;;;34.88;24.18;95086.09;5036993;28;20216;-62
2022/08/08 11:51:09;;;;;;;0.87;0.70;;;;;;;35.15;23.68;95081.50;5053023;28;20238;-67
2022/08/08 11:53:56;;;;;;;0.30;0.30;;;;;;;34.79;24.36;95096.69;5047073;28;20205;-67
2022/08/08 11:56:34;;;;;;;0.20;0.20;;;;;;;34.84;24.03;95086.13;5063874;28;20196;-66
2022/08/08 11:59:09;;;;;;;0.60;0.60;;;;;;;34.89;23.60;95080.22;5053458;28;20196;-65
2022/08/08 12:01:37;;;;;;;0.70;0.70;;;;;;;35.03;23.48;95071.16;5052780;28;20253;-66
2022/08/08 12:04:06;;;;;;;0.97;0.97;;;;;;;35.40;23.73;95071.84;5038324;28;20189;-69
2022/08/08 12:06:33;;;;;;;0.33;0.33;;;;;;;34.76;24.61;95083.91;5095323;28;20643;-65
2022/08/08 12:09:06;;;;;;;1.23;1.07;;;;;;;35.10;24.35;95081.97;5055593;28;20287;-68
2022/08/08 12:11:38;;;;;;;0.83;0.83;;;;;;;35.16;23.23;95074.91;5051937;28;20208;-64
2022/08/08 12:14:05;;;;;;;0.40;0.40;;;;;;;35.63;23.22;95065.72;5067406;28;20204;-67
2022/08/08 12:16:47;;;;;;;0.40;0.40;;;;;;;35.49;23.17;95049.59;5063277;28;20582;-63
2022/08/08 12:19:15;;;;;;;0.40;0.40;;;;;;;35.46;22.69;95055.84;5055016;28;20217;-68
2022/08/08 12:22:07;;;;;;;0.40;0.40;;;;;;;35.58;22.38;95063.47;5061117;28;20208;-65
2022/08/08 12:24:48;;;;;;;0.43;0.43;;;;;;;35.80;23.43;95063.94;5056802;28;20638;-62
2022/08/08 12:27:21;;;;;;;0.30;0.30;;;;;;;36.13;22.64;95066.53;5058280;28;20216;-63
2022/08/08 12:29:58;;;;;;;0.73;0.73;;;;;;;36.18;22.96;95060.63;5038608;28;20247;-66
2022/08/08 12:32:27;;;;;;;0.80;0.80;;;;;;;36.04;22.46;95055.38;5051858;28;20218;-67
2022/08/08 12:34:57;;;;;;;0.50;0.50;;;;;;;36.56;22.11;95051.00;5038322;28;20220;-65
2022/08/08 12:37:45;;;;;;;1.53;1.13;;;;;;;36.04;21.89;95041.75;5051762;28;20185;-68
2022/08/08 12:40:37;;;;;;;0.47;0.47;;;;;;;35.63;22.46;95049.38;5051942;28;20201;-66
2022/08/08 12:43:31;;;;;;;0.30;0.30;;;;;;;34.92;22.90;95046.75;5046126;28;20189;-64
2022/08/08 12:46:21;;;;;;;0.43;0.43;;;;;;;35.66;22.02;95054.00;5047257;28;20618;-63
2022/08/08 12:48:57;;;;;;;0.60;0.60;;;;;;;35.91;20.89;95037.31;5052438;28;20241;-67
2022/08/08 12:51:49;;;;;;;0.37;0.37;;;;;;;36.75;22.51;95043.25;5051525;28;20212;-62